Home > Products > Valid Products > MTR

000
SAUS45 KPIH 190852
MTRSNT
METAR KSNT 190851Z AUTO 00000KT M03/M08 A3020 RMK AO1 SLP183
T10281083 50008





000
SAUS45 KPIH 190752
MTRSNT
METAR KSNT 190751Z AUTO 17003KT M03/M08 A3021 RMK AO1 SLP184
T10281083





000
SAUS45 KPIH 190652
MTRSNT
METAR KSNT 190651Z AUTO 00000KT M01/M08 A3019 RMK AO1 SLP178
T10111083 401561050





000
SAUS45 KPIH 190552
MTRSNT
METAR KSNT 190551Z AUTO 18003KT M01/M08 A3018 RMK AO1 SLP175
T10061078 10156 21006 51009





000
SAUS45 KPIH 190452
MTRSNT
METAR KSNT 190451Z AUTO 00000KT 01/M08 A3017 RMK AO1 SLP175
T00111078





000
SAUS45 KPIH 190352
MTRSNT
METAR KSNT 190351Z AUTO 16003KT 03/M07 A3017 RMK AO1 SLP180
T00281072





000
SAUS45 KPIH 190252
MTRSNT
METAR KSNT 190251Z AUTO 00000KT 04/M07 A3014 RMK AO1 SLP177
T00441072 53003





000
SAUS45 KPIH 190152
MTRSNT
METAR KSNT 190151Z AUTO 31005KT 12/M09 A3013 RMK AO1 SLP160
T01171089





000
SAUS45 KPIH 190052
MTRSNT
METAR KSNT 190051Z AUTO 33006G15KT 14/M09 A3013 RMK AO1 SLP160
T01441089





000
SAUS45 KPIH 182352
MTRSNT
METAR KSNT 182351Z AUTO 31006G14KT 15/M08 A3013 RMK AO1 SLP160
T01501078 10156 20117 56009





000
SAUS45 KPIH 182252
MTRSNT
METAR KSNT 182251Z AUTO 29007G16KT 250V330 15/M09 A3014 RMK AO1
SLP160 T01501094





000
SAUS45 KPIH 182252
MTRSNT
METAR KSNT 182251Z AUTO 29007G16KT 250V330 15/M09 A3014 RMK AO1
SLP160 T01501094





000
SAUS45 KPIH 182152
MTRSNT
METAR KSNT 182151Z AUTO 15/M09 A3015 RMK AO1 SLP163 T01501094





000
SAUS45 KPIH 182152
MTRSNT
METAR KSNT 182151Z AUTO 15/M09 A3015 RMK AO1 SLP163 T01501094





000
SAUS45 KPIH 182052
MTRSNT
METAR KSNT 182051Z AUTO 29009KT 14/M11 A3016 RMK AO1 SLP168
T01441106 56007





000
SAUS45 KPIH 181952
MTRSNT
METAR KSNT 181951Z AUTO 32009KT 14/M09 A3016 RMK AO1 SLP166
T01441094





000
SAUS45 KPIH 181852
MTRSNT
METAR KSNT 181851Z AUTO 02008KT 13/M09 A3017 RMK AO1 SLP169
T01331094





000
SAUS45 KPIH 181852
MTRSNT
METAR KSNT 181851Z AUTO 02008KT 13/M09 A3017 RMK AO1 SLP169
T01331094





000
SAUS45 KPIH 181752
MTRSNT
METAR KSNT 181751Z AUTO VRB03KT 12/M06 A3019 RMK AO1 SLP178
T01171056 10117 21050 58005





000
SAUS45 KPIH 181652
MTRSNT
METAR KSNT 181651Z AUTO 36005KT 09/M02 A3019 RMK AO1 SLP179
T00891022





000
SAUS45 KPIH 181652
MTRSNT
METAR KSNT 181651Z AUTO 36005KT 09/M02 A3019 RMK AO1 SLP179
T00891022





000
SAUS45 KPIH 181552
MTRSNT
METAR KSNT 181551Z AUTO 34005KT 04/M02 A3021 RMK AO1 SLP188
T00441022





000
SAUS45 KPIH 181452
MTRSNT
METAR KSNT 181451Z AUTO 35003KT 01/M04 A3021 RMK AO1 SLP192
T00111044 50003





000
SAUS45 KPIH 181352
MTRSNT
METAR KSNT 181351Z AUTO 00000KT M02/M06 A3022 RMK AO1 SLP189
T10221056





000
SAUS45 KPIH 181352
MTRSNT
METAR KSNT 181351Z AUTO 00000KT M02/M06 A3022 RMK AO1 SLP189
T10221056





000
SAUS45 KPIH 181252
MTRSNT
METAR KSNT 181251Z AUTO 00000KT M05/M08 A3020 RMK AO1 SLP183
T10501078





000
SAUS45 KPIH 181252
MTRSNT
METAR KSNT 181251Z AUTO 00000KT M05/M08 A3020 RMK AO1 SLP183
T10501078





000
SAUS45 KPIH 181152
MTRSNT
METAR KSNT 181151Z AUTO 00000KT M04/M07 A3020 RMK AO1 SLP178
T10441072 10011 21044 53005





000
SAUS45 KPIH 181152
MTRSNT
METAR KSNT 181151Z AUTO 00000KT M04/M07 A3020 RMK AO1 SLP178
T10441072 10011 21044 53005





000
SAUS45 KPIH 181052
MTRSNT
METAR KSNT 181051Z AUTO 17003KT M03/M06 A3019 RMK AO1 SLP173
T10331061





000
SAUS45 KPIH 180952
MTRSNT
METAR KSNT 180951Z AUTO 16003KT M03/M06 A3018 RMK AO1 SLP169
T10331061





000
SAUS45 KPIH 180852
MTRSNT
METAR KSNT 180851Z AUTO 00000KT M02/M06 A3018 RMK AO1 SLP166
T10221061 51006





000
SAUS45 KPIH 180852
MTRSNT
METAR KSNT 180851Z AUTO 00000KT M02/M06 A3018 RMK AO1 SLP166
T10221061 51006





000
SAUS45 KPIH 180752
MTRSNT
METAR KSNT 180751Z AUTO 00000KT M01/M06 A3018 RMK AO1 SLP168
T10111061





000
SAUS45 KPIH 180652
MTRSNT
METAR KSNT 180651Z AUTO 15003KT 00/M05 A3017 RMK AO1 SLP163
T00001050 401831072





000
SAUS45 KPIH 180652
MTRSNT
METAR KSNT 180651Z AUTO 15003KT 00/M05 A3017 RMK AO1 SLP163
T00001050 401831072





000
SAUS45 KPIH 180552
MTRSNT
METAR KSNT 180551Z AUTO 00000KT 01/M06 A3016 RMK AO1 SLP169
T00061056 10178 20006 51014





000
SAUS45 KPIH 180452
MTRSNT
METAR KSNT 180451Z AUTO 00000KT 03/M05 A3014 RMK AO1 SLP165
T00281050





000
SAUS45 KPIH 180352
MTRSNT
METAR KSNT 180351Z AUTO 25004KT 05/M05 A3013 RMK AO1 SLP164
T00501050





000
SAUS45 KPIH 180252
MTRSNT
METAR KSNT 180251Z AUTO 00000KT 08/M06 A3011 RMK AO1 SLP162
T00781056 53001





000
SAUS45 KPIH 180252
MTRSNT
METAR KSNT 180251Z AUTO 00000KT 08/M06 A3011 RMK AO1 SLP162
T00781056 53001





000
SAUS45 KPIH 180152
MTRSNT
METAR KSNT 180151Z AUTO VRB03KT 14/M07 A3009 RMK AO1 SLP149
T01391067





000
SAUS45 KPIH 180152
MTRSNT
METAR KSNT 180151Z AUTO VRB03KT 14/M07 A3009 RMK AO1 SLP149
T01391067





000
SAUS45 KPIH 180052
MTRSNT
METAR KSNT 180051Z AUTO 34007KT 17/M10 A3010 RMK AO1 SLP150
T01671100





000
SAUS45 KPIH 180052
MTRSNT
METAR KSNT 180051Z AUTO 34007KT 17/M10 A3010 RMK AO1 SLP150
T01671100





000
SAUS45 KPIH 172352
MTRSNT
METAR KSNT 172351Z AUTO 34007G16KT 18/M12 A3010 RMK AO1 SLP148
T01781117 10183 20106 56013





000
SAUS45 KPIH 172252
MTRSNT
METAR KSNT 172251Z AUTO 02007KT 340V040 18/M10 A3011 RMK AO1 SLP146
T01781100





000
SAUS45 KPIH 172152
MTRSNT
METAR KSNT 172151Z AUTO VRB03KT 18/M12 A3013 RMK AO1 SLP154
T01781117





000
SAUS45 KPIH 172052
MTRSNT
METAR KSNT 172051Z AUTO 17/M11 A3015 RMK AO1 SLP165 T01721106 58019





000
SAUS45 KPIH 171952
MTRSNT
METAR KSNT 171951Z AUTO 36006KT 16/M13 A3018 RMK AO1 SLP173
T01561133





000
SAUS45 KPIH 171952
MTRSNT
METAR KSNT 171951Z AUTO 36006KT 16/M13 A3018 RMK AO1 SLP173
T01561133





000
SAUS45 KPIH 171852
MTRSNT
METAR KSNT 171851Z AUTO 36006KT 14/M07 A3020 RMK AO1 SLP180
T01391067





000
SAUS45 KPIH 171752
MTRSNT
METAR KSNT 171751Z AUTO VRB04KT 11/M07 A3022 RMK AO1 SLP194
T01061072 10106 21072 58018





000
SAUS45 KPIH 171652
MTRSNT
METAR KSNT 171651Z AUTO VRB04KT 07/M06 A3024 RMK AO1 SLP211
T00671061





000
SAUS45 KPIH 171552
MTRSNT
METAR KSNT 171551Z AUTO 03003KT 03/M07 A3027 RMK AO1 SLP224
T00331072





000
SAUS45 KPIH 171452
MTRSNT
METAR KSNT 171451Z AUTO 06004KT M02/M07 A3028 RMK AO1 SLP231
T10171072 51007





000
SAUS45 KPIH 171452
MTRSNT
METAR KSNT 171451Z AUTO 06004KT M02/M07 A3028 RMK AO1 SLP231
T10171072 51007





000
SAUS45 KPIH 171353 COR
MTRSNT
METAR KSNT 171351Z AUTO 07003KT M04/M08 A3028 RMK AO1 SLP225
T10441083





000
SAUS45 KPIH 171353 COR
MTRSNT
METAR KSNT 171351Z AUTO 07003KT M04/M08 A3028 RMK AO1 SLP225
T10441083





000
SAUS45 KPIH 171252
MTRSNT
METAR KSNT 171251Z AUTO 18003KT M07/M10 A3028 RMK AO1 SLP223
T10721100





000
SAUS45 KPIH 171152
MTRSNT
METAR KSNT 171151Z AUTO 00000KT M06/M09 A3026 RMK AO1 SLP211
T10611089 11011 21072 55002





000
SAUS45 KPIH 171052
MTRSNT
METAR KSNT 171051Z AUTO 00000KT M05/M08 A3026 RMK AO1 SLP210
T10501083





000
SAUS45 KPIH 171052
MTRSNT
METAR KSNT 171051Z AUTO 00000KT M05/M08 A3026 RMK AO1 SLP210
T10501083





000
SAUS45 KPIH 170952
MTRSNT
METAR KSNT 170951Z AUTO 00000KT M05/M08 A3026 RMK AO1 SLP212
T10501083





000
SAUS45 KPIH 170852
MTRSNT
METAR KSNT 170851Z AUTO 16003KT M05/M08 A3027 RMK AO1 SLP215
T10501083 51005





000
SAUS45 KPIH 170752
MTRSNT
METAR KSNT 170751Z AUTO 00000KT M03/M08 A3026 RMK AO1 SLP212
T10331083





000
SAUS45 KPIH 170652
MTRSNT
METAR KSNT 170651Z AUTO 18003KT M02/M08 A3027 RMK AO1 SLP219
T10221078 401501083





000
SAUS45 KPIH 170552
MTRSNT
METAR KSNT 170551Z AUTO 17006KT M01/M08 A3025 RMK AO1 SLP212
T10061078 10144 21017 51015





000
SAUS45 KPIH 170452
MTRSNT
METAR KSNT 170451Z AUTO 17004KT M01/M08 A3024 RMK AO1 SLP217
T10061078





000
SAUS45 KPIH 170352
MTRSNT
METAR KSNT 170351Z AUTO 18003KT 01/M07 A3023 RMK AO1 SLP215
T00111072





000
SAUS45 KPIH 170252
MTRSNT
METAR KSNT 170251Z AUTO 00000KT 06/M09 A3019 RMK AO1 SLP201
T00611094 53008





000
SAUS45 KPIH 170252
MTRSNT
METAR KSNT 170251Z AUTO 00000KT 06/M09 A3019 RMK AO1 SLP201
T00611094 53008





000
SAUS45 KPIH 170152
MTRSNT
METAR KSNT 170151Z AUTO 27005KT 11/M09 A3017 RMK AO1 SLP191
T01061094





000
SAUS45 KPIH 170052
MTRSNT
METAR KSNT 170051Z AUTO 31009G14KT 13/M11 A3016 RMK AO1 SLP184
T01331106





000
SAUS45 KPIH 170052
MTRSNT
METAR KSNT 170051Z AUTO 31009G14KT 13/M11 A3016 RMK AO1 SLP184
T01331106





000
SAUS45 KPIH 162352
MTRSNT
METAR KSNT 162351Z AUTO VRB06KT 14/M11 A3016 RMK AO1 SLP179
T01441111 10150 20061 56007





000
SAUS45 KPIH 162252
MTRSNT
METAR KSNT 162251Z AUTO 30008KT 14/M10 A3017 RMK AO1 SLP185
T01391100





000
SAUS45 KPIH 162152
MTRSNT
METAR KSNT 162151Z AUTO 36007KT 13/M11 A3018 RMK AO1 SLP184
T01331106





000
SAUS45 KPIH 162052
MTRSNT
METAR KSNT 162051Z AUTO 33009G16KT 12/M09 A3019 RMK AO1 SLP189
T01221089 56017





000
SAUS45 KPIH 161952
MTRSNT
METAR KSNT 161951Z AUTO VRB06KT 12/M08 A3021 RMK AO1 SLP191
T01171083





000
SAUS45 KPIH 161852
MTRSNT
METAR KSNT 161851Z AUTO 32008KT 08/M08 A3023 RMK AO1 SLP206
T00831083





000
SAUS45 KPIH 161752
MTRSNT
METAR KSNT 161751Z AUTO VRB04KT 07/M06 A3025 RMK AO1 SLP219
T00671061 10067 21083 58009





000
SAUS45 KPIH 161752
MTRSNT
METAR KSNT 161751Z AUTO VRB04KT 07/M06 A3025 RMK AO1 SLP219
T00671061 10067 21083 58009





000
SAUS45 KPIH 161652
MTRSNT
METAR KSNT 161651Z AUTO VRB03KT 04/M07 A3027 RMK AO1 SLP231
T00391067





000
SAUS45 KPIH 161552
MTRSNT
METAR KSNT 161551Z AUTO 00000KT 01/M07 A3027 RMK AO1 SLP240
T00061067





000
SAUS45 KPIH 161552
MTRSNT
METAR KSNT 161551Z AUTO 00000KT 01/M07 A3027 RMK AO1 SLP240
T00061067





000
SAUS45 KPIH 161452
MTRSNT
METAR KSNT 161451Z AUTO 06004KT M03/M07 A3028 RMK AO1 SLP248
T10281072 51010





000
SAUS45 KPIH 161352
MTRSNT
METAR KSNT 161351Z AUTO 00000KT M06/M09 A3027 RMK AO1 SLP244
T10611089





000
SAUS45 KPIH 161352
MTRSNT
METAR KSNT 161351Z AUTO 00000KT M06/M09 A3027 RMK AO1 SLP244
T10611089





000
SAUS45 KPIH 161252
MTRSNT
METAR KSNT 161251Z AUTO 00000KT M08/M11 A3026 RMK AO1 SLP240
T10781106





000
SAUS45 KPIH 161252
MTRSNT
METAR KSNT 161251Z AUTO 00000KT M08/M11 A3026 RMK AO1 SLP240
T10781106





000
SAUS45 KPIH 161152
MTRSNT
METAR KSNT 161151Z AUTO 00000KT M07/M10 A3025 RMK AO1 SLP231
T10721100 11017 21078 53002





000
SAUS45 KPIH 161052
MTRSNT
METAR KSNT 161051Z AUTO 17003KT M07/M10 A3025 RMK AO1 SLP237
T10721100





000
SAUS45 KPIH 161052
MTRSNT
METAR KSNT 161051Z AUTO 17003KT M07/M10 A3025 RMK AO1 SLP237
T10721100





000
SAUS45 KPIH 160952
MTRSNT
METAR KSNT 160951Z AUTO 00000KT M06/M09 A3024 RMK AO1 SLP227
T10611089





    US Dept of Commerce
    National Oceanic and Atmospheric Administration
    National Weather Service
    1325 East West Highway
    Silver Spring, MD 20910
    Page Author: NWS Internet Services Team
Disclaimer
Information Quality
Credits
Glossary
Privacy Policy
Freedom of Information Act (FOIA)
About Us
Career Opportunities